Airfield :
LOGIN :

Register | Disclaimer

   EN    FR    IT 

 










Legend :    VFR   Marginal VFR   IFR   Intensive IFR   Very Intensive IFR
Visi :
Ceiling :
>= 8 km
>= 3000ft
5 to 8 km
1000 to 3000 ft
1500m to 5 km
500 to 1000 ft
800 to 1500m
200 to 500 ft
< 800m
< 200 ft
Symbols :   Thunderstorms  Fog  Heavy snow  Heavy precipitations  Wind > 20 kt
SIGMETs :     Misc.  Thunderstorms  Icing  Turbulence  Mountain Waves  Volcanic Ashes







- Airport Elevation : 584 ft
- Download approach charts


LFPV - Villacoublay Vélizy

CURRENT METAR :
  • 211930Z AUTO 05003KT 9000 FEW028 BKN035 OVC050 03/01 Q1016 NOSIG

EXPIRED METARs :
  • 211900Z AUTO 06003KT 9000 FEW037 BKN052 03/M00 Q1015 NOSIG
  • 211830Z AUTO 04003KT 9999 FEW042 BKN054 03/M00 Q1015 NOSIG
  • 211800Z AUTO 06004KT 9999 FEW020 BKN054 03/M00 Q1015 NOSIG
  • 211730Z AUTO 07005KT CAVOK 04/00 Q1015 NOSIG
  • 211700Z AUTO 06006KT CAVOK 04/M00 Q1015 TEMPO 4500 -RA

TAF AMD TAF LFPV
Valid from the 21 at 15:00 until the 22 at 15:00 UTC


211406Z 2115/2215 08004KT 9999 BKN025
PROB30
TEMPO 2116/2118 4500 -RA
BECMG 2122/2124 3000 BR BKN005
TEMPO 2200/2210 0800 FG
PROB30
TEMPO 2200/2208 0400 FG
BECMG 2210/2212 7000 NSW
No reported NOTAMs for that airfield.



MET'MAP, your aeronautical weather chart ! - Copyright ORBIFLY December 2007 - Disclaimer

ORBIFLY MET'MAP TEAM :

Programming & Development : Alexandra Zaïnal
Concept & Development : Baudouin d'Aumeries
Co-Development & Prog : Marc-Olivier Méhu
Technical & hardware support : Manuel Goepfert

Contact : metmap@orbifly.com




SOURCES & CREDITS :

   NOAA